createdAt,value
2022-12-15T00:04:34.196Z,67.02
2022-12-15T00:09:53.961Z,67.71
2022-12-15T00:15:14.062Z,67.39
2022-12-15T00:20:34.518Z,66.95
2022-12-15T00:25:54.283Z,67.26
2022-12-15T00:31:17.075Z,66.95
2022-12-15T00:36:36.920Z,67.07
2022-12-15T00:41:38.350Z,67.06
2022-12-15T00:46:54.692Z,67.09
2022-12-15T00:52:14.513Z,67.12
2022-12-15T00:57:34.301Z,66.75
2022-12-15T01:02:54.389Z,67.52
2022-12-15T01:08:14.530Z,66.99
2022-12-15T01:13:34.766Z,66.83
2022-12-15T01:18:54.521Z,67.09
2022-12-15T01:23:55.892Z,67.20
2022-12-15T01:28:57.278Z,67.17
2022-12-15T01:33:58.631Z,67.25
2022-12-15T01:39:01.046Z,67.07
2022-12-15T01:44:20.139Z,67.00
2022-12-15T01:49:25.532Z,66.94
2022-12-15T01:54:38.702Z,67.35
2022-12-15T01:59:48.771Z,66.95
2022-12-15T02:04:52.876Z,67.00
2022-12-15T02:09:58.107Z,66.70
2022-12-15T02:15:22.593Z,66.83
2022-12-15T02:20:42.889Z,67.08
2022-12-15T02:25:59.503Z,67.07
2022-12-15T02:31:27.730Z,67.06
2022-12-15T02:36:36.885Z,67.07
2022-12-15T02:41:39.583Z,67.08
2022-12-15T02:46:56.592Z,66.87
2022-12-15T02:52:20.276Z,67.28
2022-12-15T02:57:35.232Z,66.94
2022-12-15T03:02:41.699Z,67.43
2022-12-15T03:07:43.205Z,67.23
2022-12-15T03:12:45.114Z,67.49
2022-12-15T03:17:46.584Z,67.71
2022-12-15T03:22:47.962Z,67.41
2022-12-15T03:27:49.406Z,67.07
2022-12-15T03:32:50.783Z,67.29
2022-12-15T03:37:53.228Z,67.30
2022-12-15T03:42:54.637Z,67.17
2022-12-15T03:47:56.969Z,66.98
2022-12-15T03:53:02.434Z,66.98
2022-12-15T03:58:03.817Z,66.99
2022-12-15T04:03:05.424Z,67.06
2022-12-15T04:08:06.984Z,67.27
2022-12-15T04:13:10.793Z,67.19
2022-12-15T04:18:12.165Z,67.28
2022-12-15T04:23:14.136Z,67.43
2022-12-15T04:28:33.869Z,67.54
2022-12-15T04:33:55.016Z,67.10
2022-12-15T04:39:16.133Z,67.58
2022-12-15T04:44:36.675Z,67.69
2022-12-15T04:49:56.553Z,68.22
2022-12-15T04:55:16.261Z,68.33
2022-12-15T05:00:36.154Z,68.03
2022-12-15T05:05:56.151Z,67.72
2022-12-15T05:11:18.737Z,68.12
2022-12-15T05:16:38.533Z,67.98
2022-12-15T05:21:58.261Z,68.04
2022-12-15T05:27:18.356Z,68.49
2022-12-15T05:32:19.715Z,67.68
2022-12-15T05:37:21.138Z,67.91
2022-12-15T05:42:22.489Z,68.08
2022-12-15T05:47:23.846Z,67.89
2022-12-15T05:52:25.299Z,67.92
2022-12-15T05:57:26.658Z,67.81
2022-12-15T06:02:31.098Z,68.09
2022-12-15T06:07:33.841Z,68.04
2022-12-15T06:12:35.203Z,67.90
2022-12-15T06:17:36.604Z,68.17
2022-12-15T06:22:38.004Z,68.82
2022-12-15T06:27:39.419Z,68.57
2022-12-15T06:32:40.800Z,68.38
2022-12-15T06:37:42.135Z,67.64
2022-12-15T06:42:43.508Z,67.53
2022-12-15T06:47:44.895Z,67.97
2022-12-15T06:52:46.340Z,68.07
2022-12-15T06:57:48.867Z,68.40
2022-12-15T07:02:50.882Z,68.67
2022-12-15T07:07:52.491Z,68.31
2022-12-15T07:12:56.646Z,68.56
2022-12-15T07:17:58.042Z,68.28
2022-12-15T07:23:00.618Z,68.21
2022-12-15T07:28:02.189Z,67.84
2022-12-15T07:33:04.730Z,68.03
2022-12-15T07:38:07.114Z,67.99
2022-12-15T07:43:08.476Z,67.74
2022-12-15T07:48:09.919Z,68.14
2022-12-15T07:53:11.290Z,67.91
2022-12-15T07:58:12.723Z,67.85
2022-12-15T08:03:14.196Z,68.15
2022-12-15T08:08:15.806Z,68.32
2022-12-15T08:13:52.881Z,67.54
2022-12-15T08:18:39.493Z,68.24
2022-12-15T08:23:41.256Z,68.26
2022-12-15T08:28:43.594Z,67.91
2022-12-15T08:33:46.383Z,68.25
2022-12-15T08:38:48.050Z,67.96
2022-12-15T08:43:50.965Z,68.29
2022-12-15T08:48:55.476Z,68.22
2022-12-15T08:54:00.375Z,68.33
2022-12-15T08:59:02.846Z,67.79
2022-12-15T09:04:04.318Z,68.19
2022-12-15T09:09:08.074Z,68.74
2022-12-15T09:14:09.443Z,68.59
2022-12-15T09:19:11.062Z,68.58
2022-12-15T09:24:22.137Z,68.53
2022-12-15T09:29:27.629Z,68.39
2022-12-15T09:34:29.075Z,68.27
2022-12-15T09:39:30.670Z,67.91
2022-12-15T09:44:32.944Z,67.67
2022-12-15T09:49:54.960Z,67.86
2022-12-15T09:54:58.233Z,67.78
2022-12-15T10:00:09.991Z,68.19
2022-12-15T10:05:20.640Z,68.11
2022-12-15T10:10:30.488Z,68.37
2022-12-15T10:15:45.462Z,68.81
2022-12-15T10:20:55.358Z,68.96
2022-12-15T10:26:16.274Z,68.90
2022-12-15T10:31:30.405Z,69.15
2022-12-15T10:36:31.845Z,68.98
2022-12-15T10:41:33.639Z,69.25
2022-12-15T10:46:35.092Z,68.17
2022-12-15T10:51:54.209Z,68.61
2022-12-15T10:56:57.112Z,67.86
2022-12-15T11:07:47.533Z,68.83
2022-12-15T11:13:17.389Z,68.83
2022-12-15T11:18:51.431Z,68.16
2022-12-15T11:24:16.454Z,68.51
2022-12-15T11:29:39.152Z,68.55
2022-12-15T11:34:45.961Z,69.06
2022-12-15T11:40:19.493Z,68.39
2022-12-15T11:45:31.442Z,68.58
2022-12-15T11:50:59.299Z,69.27
2022-12-15T11:56:28.386Z,68.43
2022-12-15T12:02:08.299Z,69.10
2022-12-15T12:07:42.006Z,68.85
2022-12-15T12:13:13.978Z,68.58
2022-12-15T12:18:46.551Z,68.09
2022-12-15T12:23:58.509Z,68.83
2022-12-15T12:29:13.051Z,68.39
2022-12-15T12:34:23.473Z,69.15
2022-12-15T12:39:25.859Z,68.80
2022-12-15T12:44:37.670Z,68.84
2022-12-15T12:49:56.376Z,69.10
2022-12-15T12:55:05.072Z,68.65
2022-12-15T13:00:20.318Z,68.66
2022-12-15T13:05:29.227Z,68.69
2022-12-15T13:10:38.742Z,68.69
2022-12-15T13:15:45.730Z,68.25
2022-12-15T13:20:57.162Z,68.42
2022-12-15T13:25:59.010Z,68.45
2022-12-15T13:31:24.381Z,68.53
2022-12-15T13:36:38.318Z,67.87
2022-12-15T13:42:15.138Z,67.99
2022-12-15T13:47:23.655Z,68.09
2022-12-15T13:53:16.710Z,67.90
2022-12-15T13:58:02.751Z,68.05
2022-12-15T14:03:06.917Z,68.24
2022-12-15T14:08:15.521Z,67.69
2022-12-15T14:13:36.998Z,67.90
2022-12-15T14:18:39.060Z,68.03
2022-12-15T14:24:10.902Z,68.03
2022-12-15T14:29:06.241Z,67.43
2022-12-15T14:34:29.825Z,67.57
2022-12-15T14:39:43.095Z,68.29
2022-12-15T14:44:49.738Z,67.84
2022-12-15T14:55:33.266Z,67.90
2022-12-15T15:00:48.519Z,67.65
2022-12-15T15:03:10.364Z,68.40
2022-12-15T15:05:55.124Z,67.60
2022-12-15T15:11:00.827Z,68.28
2022-12-15T15:16:07.096Z,68.05
2022-12-15T15:21:17.111Z,68.43
2022-12-15T15:26:18.746Z,68.25
2022-12-15T15:31:40.917Z,67.67
2022-12-15T15:36:43.305Z,68.24
2022-12-15T15:41:44.674Z,68.02
2022-12-15T15:46:49.300Z,68.42
2022-12-15T15:51:50.683Z,68.40
2022-12-15T15:56:52.051Z,68.21
2022-12-15T16:01:55.745Z,68.37
2022-12-15T16:06:57.253Z,68.04
2022-12-15T16:11:59.395Z,68.33
2022-12-15T16:17:00.733Z,68.20
2022-12-15T16:22:02.462Z,67.99
2022-12-15T16:27:03.926Z,68.23
2022-12-15T16:32:06.102Z,68.35
2022-12-15T16:37:23.780Z,68.27
2022-12-15T16:42:25.194Z,68.50
2022-12-15T16:47:27.119Z,68.84
2022-12-15T16:52:28.506Z,68.72
2022-12-15T16:57:29.950Z,68.80
2022-12-15T17:02:31.596Z,68.40
2022-12-15T17:07:33.220Z,68.43
2022-12-15T17:12:34.748Z,68.92
2022-12-15T17:17:36.092Z,68.92
2022-12-15T17:22:37.756Z,68.46
2022-12-15T17:27:39.132Z,68.49
2022-12-15T17:32:40.534Z,68.08
2022-12-15T17:37:43.420Z,68.46
2022-12-15T17:42:46.157Z,68.43
2022-12-15T17:47:48.161Z,68.32
2022-12-15T17:52:49.798Z,68.44
2022-12-15T17:57:54.567Z,68.60
2022-12-15T18:02:57.446Z,68.84
2022-12-15T18:08:02.607Z,68.84
2022-12-15T18:13:15.015Z,68.67
2022-12-15T18:18:18.506Z,68.81
2022-12-15T18:23:22.226Z,68.71
2022-12-15T18:28:28.945Z,68.86
2022-12-15T18:33:30.892Z,68.75
2022-12-15T18:38:32.570Z,68.60
2022-12-15T18:43:35.196Z,68.52
2022-12-15T18:48:37.001Z,68.94
2022-12-15T18:53:41.005Z,68.42
2022-12-15T18:58:42.448Z,68.40
2022-12-15T19:03:43.841Z,68.68
2022-12-15T19:08:45.426Z,68.11
2022-12-15T19:13:46.830Z,68.52
2022-12-15T19:19:06.865Z,68.49
2022-12-15T19:24:14.922Z,68.59
2022-12-15T19:29:21.878Z,68.35
2022-12-15T19:34:26.217Z,68.40
2022-12-15T19:39:28.667Z,68.87
2022-12-15T19:44:30.735Z,68.70
2022-12-15T19:49:32.103Z,68.75
2022-12-15T19:54:33.459Z,68.68
2022-12-15T19:59:34.781Z,69.29
2022-12-15T20:04:36.212Z,68.75
2022-12-15T20:09:38.006Z,68.46
2022-12-15T20:14:39.518Z,68.83
2022-12-15T20:19:41.600Z,69.34
2022-12-15T20:24:44.436Z,69.13
2022-12-15T20:29:45.898Z,68.69
2022-12-15T20:34:47.582Z,68.95
2022-12-15T20:39:55.561Z,68.76
2022-12-15T20:44:58.669Z,68.47
2022-12-15T20:50:00.093Z,68.45
2022-12-15T20:55:02.926Z,68.38
2022-12-15T21:00:05.202Z,68.08
2022-12-15T21:05:07.825Z,68.30
2022-12-15T21:10:12.357Z,68.13
2022-12-15T21:15:22.126Z,67.76
2022-12-15T21:20:23.530Z,67.77
2022-12-15T21:25:26.669Z,67.67
2022-12-15T21:30:28.217Z,68.05
2022-12-15T21:35:31.894Z,67.75
2022-12-15T21:40:33.620Z,67.72
2022-12-15T21:45:34.979Z,67.59
2022-12-15T21:50:38.322Z,67.60
2022-12-15T21:55:41.032Z,67.62
2022-12-15T22:00:45.686Z,67.61
2022-12-15T22:05:47.318Z,67.12
2022-12-15T22:10:51.136Z,67.22
2022-12-15T22:15:54.668Z,66.97
2022-12-15T22:20:56.187Z,67.02
2022-12-15T22:25:57.684Z,67.36
2022-12-15T22:31:02.572Z,67.00
2022-12-15T22:36:04.174Z,67.19
2022-12-15T22:41:06.842Z,66.88
2022-12-15T22:46:12.451Z,66.90
2022-12-15T22:51:16.205Z,66.57
2022-12-15T22:56:39.269Z,66.21
2022-12-15T23:01:40.718Z,66.47
2022-12-15T23:06:42.231Z,66.84
2022-12-15T23:11:43.963Z,67.08
2022-12-15T23:16:46.288Z,66.87
2022-12-15T23:21:47.704Z,67.21
2022-12-15T23:26:49.112Z,67.37
2022-12-15T23:31:50.446Z,67.16
2022-12-15T23:36:52.065Z,66.97
2022-12-15T23:41:53.422Z,66.90
2022-12-15T23:46:57.265Z,67.10
2022-12-15T23:51:58.645Z,67.34
2022-12-15T23:57:00.017Z,67.24
